createdAt,value
2022-10-18T00:00:00.904Z,1017.61
2022-10-18T00:01:00.877Z,1017.65
2022-10-18T00:02:00.927Z,1017.62
2022-10-18T00:03:00.853Z,1017.60
2022-10-18T00:04:00.843Z,1017.60
2022-10-18T00:05:00.854Z,1017.58
2022-10-18T00:06:00.843Z,1017.60
2022-10-18T00:07:00.814Z,1017.60
2022-10-18T00:08:00.794Z,1017.62
2022-10-18T00:09:00.782Z,1017.64
2022-10-18T00:10:00.777Z,1017.62
2022-10-18T00:11:00.769Z,1017.58
2022-10-18T00:12:00.865Z,1017.61
2022-10-18T00:13:00.738Z,1017.61
2022-10-18T00:14:00.756Z,1017.64
2022-10-18T00:15:00.745Z,1017.61
2022-10-18T00:16:00.708Z,1017.63
2022-10-18T00:17:00.698Z,1017.62
2022-10-18T00:18:00.696Z,1017.63
2022-10-18T00:19:00.692Z,1017.63
2022-10-18T00:20:00.667Z,1017.63
2022-10-18T00:21:00.670Z,1017.64
2022-10-18T00:22:00.645Z,1017.61
2022-10-18T00:23:00.637Z,1017.62
2022-10-18T00:24:00.685Z,1017.63
2022-10-18T00:25:00.614Z,1017.56
2022-10-18T00:26:00.604Z,1017.55
2022-10-18T00:27:00.588Z,1017.55
2022-10-18T00:28:00.586Z,1017.56
2022-10-18T00:29:00.625Z,1017.52
2022-10-18T00:30:00.571Z,1017.55
2022-10-18T00:31:00.566Z,1017.51
2022-10-18T00:32:00.538Z,1017.52
2022-10-18T00:33:00.557Z,1017.52
2022-10-18T00:34:00.518Z,1017.51
2022-10-18T00:35:00.500Z,1017.49
2022-10-18T00:36:00.500Z,1017.44
2022-10-18T00:37:00.469Z,1017.46
2022-10-18T00:38:00.472Z,1017.44
2022-10-18T00:39:00.459Z,1017.45
2022-10-18T00:40:00.476Z,1017.45
2022-10-18T00:41:00.430Z,1017.44
2022-10-18T00:42:00.452Z,1017.46
2022-10-18T00:43:00.425Z,1017.45
2022-10-18T00:44:00.401Z,1017.45
2022-10-18T00:45:00.381Z,1017.39
2022-10-18T00:46:00.391Z,1017.40
2022-10-18T00:47:00.400Z,1017.43
2022-10-18T00:48:00.362Z,1017.43
2022-10-18T00:49:00.343Z,1017.37
2022-10-18T00:50:00.334Z,1017.34
2022-10-18T00:51:00.325Z,1017.39
2022-10-18T00:52:00.319Z,1017.38
2022-10-18T00:53:00.306Z,1017.33
2022-10-18T00:54:00.295Z,1017.32
2022-10-18T00:55:00.290Z,1017.28
2022-10-18T00:56:00.270Z,1017.24
2022-10-18T00:57:00.262Z,1017.20
2022-10-18T00:58:00.251Z,1017.22
2022-10-18T00:59:00.239Z,1017.21
2022-10-18T01:00:00.222Z,1017.25
2022-10-18T01:01:00.239Z,1017.25
2022-10-18T01:02:00.320Z,1017.24
2022-10-18T01:03:00.208Z,1017.25
2022-10-18T01:04:00.186Z,1017.20
2022-10-18T01:05:00.160Z,1017.22
2022-10-18T01:06:00.161Z,1017.24
2022-10-18T01:07:00.241Z,1017.22
2022-10-18T01:08:00.129Z,1017.19
2022-10-18T01:09:00.143Z,1017.23
2022-10-18T01:10:00.109Z,1017.18
2022-10-18T01:11:00.138Z,1017.17
2022-10-18T01:12:00.091Z,1017.16
2022-10-18T01:13:00.097Z,1017.17
2022-10-18T01:14:00.068Z,1017.13
2022-10-18T01:15:00.064Z,1017.14
2022-10-18T01:16:00.196Z,1017.16
2022-10-18T01:17:00.025Z,1017.10
2022-10-18T01:18:00.022Z,1017.10
2022-10-18T01:19:00.032Z,1017.10
2022-10-18T01:20:00.016Z,1017.12
2022-10-18T01:20:59.980Z,1017.16
2022-10-18T01:21:59.973Z,1017.14
2022-10-18T01:22:59.978Z,1017.15
2022-10-18T01:23:59.971Z,1017.17
2022-10-18T01:24:59.983Z,1017.13
2022-10-18T01:25:59.943Z,1017.14
2022-10-18T01:26:59.924Z,1017.17
2022-10-18T01:27:59.912Z,1017.16
2022-10-18T01:28:59.938Z,1017.15
2022-10-18T01:29:59.909Z,1017.16
2022-10-18T01:30:59.871Z,1017.19
2022-10-18T01:31:59.909Z,1017.15
2022-10-18T01:32:59.850Z,1017.18
2022-10-18T01:33:59.844Z,1017.21
2022-10-18T01:34:59.889Z,1017.21
2022-10-18T01:35:59.815Z,1017.21
2022-10-18T01:36:59.830Z,1017.17
2022-10-18T01:37:59.803Z,1017.18
2022-10-18T01:38:59.786Z,1017.22
2022-10-18T01:39:59.806Z,1017.18
2022-10-18T01:40:59.777Z,1017.21
2022-10-18T01:41:59.759Z,1017.17
2022-10-18T01:42:59.802Z,1017.22
2022-10-18T01:43:59.737Z,1017.19
2022-10-18T01:44:59.724Z,1017.19
2022-10-18T01:45:59.724Z,1017.18
2022-10-18T01:46:59.707Z,1017.15
2022-10-18T01:47:59.681Z,1017.10
2022-10-18T01:48:59.691Z,1017.13
2022-10-18T01:49:59.674Z,1017.12
2022-10-18T01:50:59.683Z,1017.11
2022-10-18T01:51:59.726Z,1017.09
2022-10-18T01:52:59.660Z,1017.07
2022-10-18T01:53:59.629Z,1017.05
2022-10-18T01:54:59.612Z,1017.07
2022-10-18T01:55:59.601Z,1017.13
2022-10-18T01:56:59.595Z,1017.08
2022-10-18T01:57:59.577Z,1017.10
2022-10-18T01:58:59.568Z,1017.08
2022-10-18T01:59:59.550Z,1017.10
2022-10-18T02:00:59.595Z,1017.10
2022-10-18T02:01:59.539Z,1017.07
2022-10-18T02:02:59.539Z,1017.03
2022-10-18T02:03:59.510Z,1017.06
2022-10-18T02:04:59.502Z,1016.99
2022-10-18T02:05:59.489Z,1017.01
2022-10-18T02:06:59.576Z,1016.98
2022-10-18T02:08:12.310Z,1016.96
2022-10-18T02:09:00.445Z,1017.00
2022-10-18T02:09:59.478Z,1017.02
2022-10-18T02:10:59.474Z,1016.99
2022-10-18T02:11:59.429Z,1016.98
2022-10-18T02:12:59.403Z,1016.96
2022-10-18T02:13:59.404Z,1016.96
2022-10-18T02:14:59.421Z,1016.98
2022-10-18T02:15:59.378Z,1016.96
2022-10-18T02:16:59.410Z,1017.00
2022-10-18T02:17:59.363Z,1016.97
2022-10-18T02:18:59.347Z,1016.98
2022-10-18T02:19:59.334Z,1016.98
2022-10-18T02:20:59.324Z,1016.99
2022-10-18T02:21:59.328Z,1016.98
2022-10-18T02:22:59.317Z,1016.98
2022-10-18T02:23:59.290Z,1016.98
2022-10-18T02:24:59.271Z,1017.00
2022-10-18T02:25:59.267Z,1017.00
2022-10-18T02:26:59.251Z,1016.99
2022-10-18T02:27:59.253Z,1017.03
2022-10-18T02:28:59.229Z,1017.01
2022-10-18T02:29:59.215Z,1017.01
2022-10-18T02:30:59.207Z,1017.05
2022-10-18T02:31:59.202Z,1017.01
2022-10-18T02:32:59.200Z,1016.97
2022-10-18T02:33:59.180Z,1017.01
2022-10-18T02:34:59.188Z,1016.98
2022-10-18T02:35:59.155Z,1016.99
2022-10-18T02:36:59.140Z,1017.00
2022-10-18T02:37:59.136Z,1017.00
2022-10-18T02:38:59.142Z,1017.01
2022-10-18T02:39:59.106Z,1017.03
2022-10-18T02:40:59.125Z,1017.05
2022-10-18T02:41:59.107Z,1017.04
2022-10-18T02:42:59.074Z,1017.04
2022-10-18T02:43:59.064Z,1017.04
2022-10-18T02:44:59.049Z,1017.03
2022-10-18T02:45:59.049Z,1017.03
2022-10-18T02:46:59.031Z,1017.03
2022-10-18T02:47:59.037Z,1017.02
2022-10-18T02:48:59.016Z,1017.02
2022-10-18T02:49:59.009Z,1017.02
2022-10-18T02:50:59.004Z,1017.01
2022-10-18T02:51:59.004Z,1016.99
2022-10-18T02:52:58.961Z,1017.00
2022-10-18T02:53:58.960Z,1017.01
2022-10-18T02:54:58.982Z,1017.01
2022-10-18T02:55:58.932Z,1017.01
2022-10-18T02:56:58.923Z,1017.05
2022-10-18T02:57:58.919Z,1017.04
2022-10-18T02:58:58.894Z,1017.06
2022-10-18T02:59:58.896Z,1017.07
2022-10-18T03:00:58.874Z,1017.06
2022-10-18T03:01:58.874Z,1017.12
2022-10-18T03:02:58.861Z,1017.12
2022-10-18T03:03:58.840Z,1017.13
2022-10-18T03:04:58.847Z,1017.15
2022-10-18T03:05:58.845Z,1017.18
2022-10-18T03:06:58.805Z,1017.23
2022-10-18T03:07:58.802Z,1017.27
2022-10-18T03:08:58.789Z,1017.26
2022-10-18T03:09:58.780Z,1017.26
2022-10-18T03:10:58.792Z,1017.28
2022-10-18T03:11:58.788Z,1017.26
2022-10-18T03:12:58.758Z,1017.28
2022-10-18T03:13:58.764Z,1017.28
2022-10-18T03:14:58.716Z,1017.33
2022-10-18T03:15:58.717Z,1017.31
2022-10-18T03:16:58.692Z,1017.33
2022-10-18T03:17:58.726Z,1017.34
2022-10-18T03:18:58.688Z,1017.33
2022-10-18T03:19:58.661Z,1017.28
2022-10-18T03:20:58.660Z,1017.29
2022-10-18T03:21:58.681Z,1017.31
2022-10-18T03:22:58.636Z,1017.28
2022-10-18T03:23:58.632Z,1017.29
2022-10-18T03:24:58.615Z,1017.34
2022-10-18T03:25:58.615Z,1017.27
2022-10-18T03:26:58.617Z,1017.30
2022-10-18T03:27:58.596Z,1017.35
2022-10-18T03:28:58.615Z,1017.30
2022-10-18T03:29:58.551Z,1017.32
2022-10-18T03:30:58.553Z,1017.31
2022-10-18T03:31:58.528Z,1017.36
2022-10-18T03:32:58.529Z,1017.31
2022-10-18T03:33:58.529Z,1017.37
2022-10-18T03:34:58.526Z,1017.36
2022-10-18T03:35:58.487Z,1017.38
2022-10-18T03:37:02.055Z,1017.39
2022-10-18T03:37:59.468Z,1017.42
2022-10-18T03:38:58.463Z,1017.41
2022-10-18T03:39:58.462Z,1017.43
2022-10-18T03:40:58.446Z,1017.43
2022-10-18T03:41:58.439Z,1017.40
2022-10-18T03:42:58.435Z,1017.36
2022-10-18T03:43:58.408Z,1017.36
2022-10-18T03:44:58.384Z,1017.34
2022-10-18T03:45:58.385Z,1017.33
2022-10-18T03:46:58.372Z,1017.33
2022-10-18T03:47:58.378Z,1017.30
2022-10-18T03:48:58.348Z,1017.29
2022-10-18T03:49:58.337Z,1017.32
2022-10-18T03:50:58.324Z,1017.30
2022-10-18T03:51:58.317Z,1017.33
2022-10-18T03:52:58.307Z,1017.32
2022-10-18T03:53:58.288Z,1017.26
2022-10-18T03:54:58.281Z,1017.30
2022-10-18T03:55:58.275Z,1017.29
2022-10-18T03:56:58.257Z,1017.31
2022-10-18T03:57:58.311Z,1017.35
2022-10-18T03:58:58.260Z,1017.30
2022-10-18T03:59:58.225Z,1017.29
2022-10-18T04:00:58.207Z,1017.25
2022-10-18T04:01:58.323Z,1017.23
2022-10-18T04:02:58.191Z,1017.22
2022-10-18T04:03:58.183Z,1017.15
2022-10-18T04:04:58.170Z,1017.14
2022-10-18T04:05:58.158Z,1017.15
2022-10-18T04:06:58.151Z,1017.12
2022-10-18T04:07:58.150Z,1017.14
2022-10-18T04:08:58.121Z,1017.13
2022-10-18T04:09:58.107Z,1017.12
2022-10-18T04:10:58.096Z,1017.12
2022-10-18T04:11:58.087Z,1017.17
2022-10-18T04:12:58.114Z,1017.22
2022-10-18T04:13:58.071Z,1017.23
2022-10-18T04:14:58.084Z,1017.23
2022-10-18T04:15:58.057Z,1017.29
2022-10-18T04:16:58.039Z,1017.34
2022-10-18T04:17:58.024Z,1017.32
2022-10-18T04:18:58.014Z,1017.34
2022-10-18T04:19:58.020Z,1017.34
2022-10-18T04:20:58.002Z,1017.35
2022-10-18T04:21:57.982Z,1017.38
2022-10-18T04:22:57.965Z,1017.36
2022-10-18T04:23:57.966Z,1017.37
2022-10-18T04:24:57.954Z,1017.36
2022-10-18T04:25:57.951Z,1017.38
2022-10-18T04:26:57.921Z,1017.36
2022-10-18T04:27:57.914Z,1017.38
2022-10-18T04:28:58.033Z,1017.34
2022-10-18T04:29:57.891Z,1017.37
2022-10-18T04:30:57.899Z,1017.33
2022-10-18T04:31:57.871Z,1017.33
2022-10-18T04:32:57.862Z,1017.30
2022-10-18T04:33:57.859Z,1017.32
2022-10-18T04:34:57.836Z,1017.31
2022-10-18T04:35:57.848Z,1017.32
2022-10-18T04:36:57.836Z,1017.33
2022-10-18T04:37:57.810Z,1017.33
2022-10-18T04:38:57.797Z,1017.36
2022-10-18T04:39:57.799Z,1017.40
2022-10-18T04:40:57.773Z,1017.38
2022-10-18T04:41:57.760Z,1017.40
2022-10-18T04:42:57.759Z,1017.35
2022-10-18T04:43:57.751Z,1017.38
2022-10-18T04:44:57.727Z,1017.39
2022-10-18T04:45:57.715Z,1017.36
2022-10-18T04:46:57.727Z,1017.40
2022-10-18T04:47:57.702Z,1017.36
2022-10-18T04:48:57.715Z,1017.38
2022-10-18T04:49:57.686Z,1017.36
2022-10-18T04:50:57.652Z,1017.39
2022-10-18T04:51:57.644Z,1017.40
2022-10-18T04:52:57.646Z,1017.35
2022-10-18T04:53:57.626Z,1017.38
2022-10-18T04:54:57.628Z,1017.38
2022-10-18T04:55:57.595Z,1017.43
2022-10-18T04:56:57.606Z,1017.40
2022-10-18T04:57:57.588Z,1017.41
2022-10-18T04:58:57.576Z,1017.43
2022-10-18T04:59:57.554Z,1017.41
2022-10-18T05:00:57.560Z,1017.44
2022-10-18T05:01:57.731Z,1017.43
2022-10-18T05:02:57.563Z,1017.40
2022-10-18T05:03:57.539Z,1017.40
2022-10-18T05:04:57.525Z,1017.38
2022-10-18T05:06:01.648Z,1017.37
2022-10-18T05:06:58.510Z,1017.37
2022-10-18T05:07:57.471Z,1017.37
2022-10-18T05:08:57.493Z,1017.41
2022-10-18T05:09:57.483Z,1017.44
2022-10-18T05:10:57.596Z,1017.43
2022-10-18T05:11:57.419Z,1017.44
2022-10-18T05:12:57.416Z,1017.47
2022-10-18T05:13:57.431Z,1017.47
2022-10-18T05:14:57.408Z,1017.46
2022-10-18T05:15:57.388Z,1017.50
2022-10-18T05:16:57.387Z,1017.47
2022-10-18T05:17:57.386Z,1017.49
2022-10-18T05:18:57.382Z,1017.45
2022-10-18T05:19:57.451Z,1017.45
2022-10-18T05:20:57.330Z,1017.45
2022-10-18T05:21:57.324Z,1017.45
2022-10-18T05:22:57.318Z,1017.45
2022-10-18T05:23:57.313Z,1017.51
2022-10-18T05:25:03.943Z,1017.49
2022-10-18T05:25:57.278Z,1017.45
2022-10-18T05:26:57.273Z,1017.45
2022-10-18T05:27:57.287Z,1017.48
2022-10-18T05:28:57.317Z,1017.48
2022-10-18T05:29:59.993Z,1017.49
2022-10-18T05:30:58.219Z,1017.50
2022-10-18T05:31:57.214Z,1017.49
2022-10-18T05:32:57.228Z,1017.51
2022-10-18T05:33:57.197Z,1017.48
2022-10-18T05:34:57.191Z,1017.50
2022-10-18T05:35:57.163Z,1017.50
2022-10-18T05:36:57.177Z,1017.50
2022-10-18T05:37:57.159Z,1017.50
2022-10-18T05:39:00.922Z,1017.52
2022-10-18T05:39:58.141Z,1017.52
2022-10-18T05:40:57.110Z,1017.54
2022-10-18T05:41:57.095Z,1017.52
2022-10-18T05:42:57.102Z,1017.57
2022-10-18T05:43:57.107Z,1017.54
2022-10-18T05:44:57.068Z,1017.52
2022-10-18T05:45:57.070Z,1017.56
2022-10-18T05:46:57.088Z,1017.56
2022-10-18T05:47:57.046Z,1017.59
2022-10-18T05:48:57.028Z,1017.58
2022-10-18T05:49:57.009Z,1017.61
2022-10-18T05:50:57.022Z,1017.60
2022-10-18T05:51:57.013Z,1017.59
2022-10-18T05:53:02.757Z,1017.63
2022-10-18T05:53:57.971Z,1017.62
2022-10-18T05:54:56.995Z,1017.61
2022-10-18T05:55:56.964Z,1017.69
2022-10-18T05:56:56.983Z,1017.63
2022-10-18T05:57:56.945Z,1017.64
2022-10-18T05:58:56.948Z,1017.67
2022-10-18T05:59:56.914Z,1017.66
2022-10-18T06:00:56.879Z,1017.70
2022-10-18T06:01:56.901Z,1017.73
2022-10-18T06:03:00.156Z,1017.71
2022-10-18T06:03:56.859Z,1017.76
2022-10-18T06:04:56.846Z,1017.74
2022-10-18T06:05:56.900Z,1017.78
2022-10-18T06:06:56.837Z,1017.81
2022-10-18T06:07:56.812Z,1017.79
2022-10-18T06:08:56.862Z,1017.77
2022-10-18T06:09:56.818Z,1017.86
2022-10-18T06:10:56.790Z,1017.85
2022-10-18T06:11:56.778Z,1017.84
2022-10-18T06:12:56.751Z,1017.85
2022-10-18T06:13:56.790Z,1017.84
2022-10-18T06:14:56.736Z,1017.85
2022-10-18T06:15:56.739Z,1017.87
2022-10-18T06:16:56.726Z,1017.88
2022-10-18T06:17:56.713Z,1017.87
2022-10-18T06:18:56.688Z,1017.87
2022-10-18T06:19:56.761Z,1017.88
2022-10-18T06:20:56.687Z,1017.84
2022-10-18T06:21:56.653Z,1017.84
2022-10-18T06:22:56.658Z,1017.83
2022-10-18T06:23:56.646Z,1017.83
2022-10-18T06:24:57.379Z,1017.82
2022-10-18T06:25:56.629Z,1017.85
2022-10-18T06:26:56.695Z,1017.83
2022-10-18T06:27:56.600Z,1017.85
2022-10-18T06:28:56.790Z,1017.84
2022-10-18T06:29:56.570Z,1017.79
2022-10-18T06:30:56.577Z,1017.84
2022-10-18T06:31:56.568Z,1017.84
2022-10-18T06:32:56.531Z,1017.85
2022-10-18T06:33:56.540Z,1017.83
2022-10-18T06:34:56.528Z,1017.79
2022-10-18T06:35:56.544Z,1017.83
2022-10-18T06:36:58.653Z,1017.82
2022-10-18T06:37:56.514Z,1017.83
2022-10-18T06:38:56.488Z,1017.81
2022-10-18T06:39:56.527Z,1017.84
2022-10-18T06:40:56.442Z,1017.84
2022-10-18T06:41:56.437Z,1017.86
2022-10-18T06:43:00.465Z,1017.86
2022-10-18T06:43:56.468Z,1017.88
2022-10-18T06:44:56.395Z,1017.93
2022-10-18T06:45:56.388Z,1017.88
2022-10-18T06:46:56.379Z,1017.90
2022-10-18T06:47:56.445Z,1017.90
2022-10-18T06:48:56.384Z,1017.91
2022-10-18T06:49:56.379Z,1017.91
2022-10-18T06:50:56.418Z,1017.89
2022-10-18T06:51:56.321Z,1017.87
2022-10-18T06:52:56.313Z,1017.88
2022-10-18T06:54:17.000Z,1017.91
2022-10-18T06:54:57.339Z,1017.95
2022-10-18T06:55:56.288Z,1017.93
2022-10-18T06:56:56.299Z,1017.98
2022-10-18T06:57:56.276Z,1017.99
2022-10-18T06:58:56.360Z,1017.95
2022-10-18T06:59:56.232Z,1017.98
2022-10-18T07:00:56.226Z,1017.97
2022-10-18T07:01:56.272Z,1017.97
2022-10-18T07:02:56.246Z,1018.00
2022-10-18T07:03:56.200Z,1018.01
2022-10-18T07:04:56.169Z,1018.05
2022-10-18T07:05:56.165Z,1018.05
2022-10-18T07:06:56.146Z,1018.07
2022-10-18T07:07:56.545Z,1018.01
2022-10-18T07:08:56.146Z,1018.01
2022-10-18T07:09:56.134Z,1018.04
2022-10-18T07:10:56.160Z,1018.07
2022-10-18T07:11:56.121Z,1018.06
2022-10-18T07:13:07.945Z,1018.10
2022-10-18T07:13:57.116Z,1018.11
2022-10-18T07:14:56.065Z,1018.14
2022-10-18T07:15:56.087Z,1018.13
2022-10-18T07:16:56.081Z,1018.15
2022-10-18T07:17:56.053Z,1018.14
2022-10-18T07:18:56.025Z,1018.12
2022-10-18T07:19:56.017Z,1018.15
2022-10-18T07:20:56.038Z,1018.14
2022-10-18T07:21:56.000Z,1018.18
2022-10-18T07:22:56.009Z,1018.17
2022-10-18T07:23:55.967Z,1018.18
2022-10-18T07:24:55.955Z,1018.19
2022-10-18T07:25:56.104Z,1018.25
2022-10-18T07:26:56.071Z,1018.26
2022-10-18T07:27:55.939Z,1018.26
2022-10-18T07:28:56.011Z,1018.24
2022-10-18T07:29:55.902Z,1018.21
2022-10-18T07:30:56.071Z,1018.21
2022-10-18T07:31:55.893Z,1018.22
2022-10-18T07:32:55.868Z,1018.26
2022-10-18T07:33:55.854Z,1018.26
2022-10-18T07:34:55.849Z,1018.27
2022-10-18T07:35:55.898Z,1018.23
2022-10-18T07:36:55.840Z,1018.27
2022-10-18T07:37:55.818Z,1018.34
2022-10-18T07:38:55.803Z,1018.33
2022-10-18T07:39:55.855Z,1018.38
2022-10-18T07:40:56.465Z,1018.39
2022-10-18T07:41:55.787Z,1018.44
2022-10-18T07:42:55.771Z,1018.48
2022-10-18T07:43:55.750Z,1018.48
2022-10-18T07:44:55.730Z,1018.47
2022-10-18T07:45:55.743Z,1018.49
2022-10-18T07:46:56.063Z,1018.52
2022-10-18T07:47:55.703Z,1018.54
2022-10-18T07:48:55.744Z,1018.58
2022-10-18T07:49:55.712Z,1018.55
2022-10-18T07:50:55.873Z,1018.55
2022-10-18T07:51:55.673Z,1018.57
2022-10-18T07:52:55.658Z,1018.58
2022-10-18T07:53:55.674Z,1018.62
2022-10-18T07:54:55.669Z,1018.60
2022-10-18T07:55:55.631Z,1018.62
2022-10-18T07:56:55.597Z,1018.65
2022-10-18T07:57:55.583Z,1018.65
2022-10-18T07:58:55.592Z,1018.66
2022-10-18T07:59:55.593Z,1018.66
2022-10-18T08:00:55.597Z,1018.68
2022-10-18T08:01:55.599Z,1018.69
2022-10-18T08:02:55.527Z,1018.72
2022-10-18T08:03:55.516Z,1018.70
2022-10-18T08:04:55.536Z,1018.75
2022-10-18T08:05:55.552Z,1018.74
2022-10-18T08:06:55.500Z,1018.80
2022-10-18T08:07:55.482Z,1018.78
2022-10-18T08:08:55.519Z,1018.79
2022-10-18T08:09:55.508Z,1018.79
2022-10-18T08:10:55.479Z,1018.77
2022-10-18T08:11:55.439Z,1018.77
2022-10-18T08:12:55.415Z,1018.76
2022-10-18T08:13:55.429Z,1018.77
2022-10-18T08:14:55.428Z,1018.80
2022-10-18T08:15:55.384Z,1018.78
2022-10-18T08:16:55.385Z,1018.79
2022-10-18T08:17:55.400Z,1018.75
2022-10-18T08:18:55.387Z,1018.79
2022-10-18T08:20:11.350Z,1018.76
2022-10-18T08:20:59.006Z,1018.77
2022-10-18T08:21:55.371Z,1018.75
2022-10-18T08:22:59.712Z,1018.80
2022-10-18T08:23:55.338Z,1018.78
2022-10-18T08:24:55.296Z,1018.76
2022-10-18T08:25:55.291Z,1018.78
2022-10-18T08:26:55.269Z,1018.83
2022-10-18T08:27:55.303Z,1018.81
2022-10-18T08:29:10.315Z,1018.86
2022-10-18T08:29:56.287Z,1018.84
2022-10-18T08:30:55.253Z,1018.85
2022-10-18T08:31:55.222Z,1018.84
2022-10-18T08:32:55.240Z,1018.81
2022-10-18T08:33:55.206Z,1018.80
2022-10-18T08:34:55.180Z,1018.75
2022-10-18T08:35:55.244Z,1018.77
2022-10-18T08:36:55.210Z,1018.75
2022-10-18T08:37:55.187Z,1018.80
2022-10-18T08:38:57.992Z,1018.80
2022-10-18T08:39:55.138Z,1018.85
2022-10-18T08:40:55.111Z,1018.83
2022-10-18T08:41:55.096Z,1018.86
2022-10-18T08:42:55.125Z,1018.89
2022-10-18T08:43:55.094Z,1018.89
2022-10-18T08:44:55.080Z,1018.92
2022-10-18T08:45:55.048Z,1018.96
2022-10-18T08:46:55.105Z,1018.98
2022-10-18T08:47:55.061Z,1018.97
2022-10-18T08:48:55.035Z,1018.93
2022-10-18T08:49:55.062Z,1018.95
2022-10-18T08:50:55.043Z,1018.93
2022-10-18T08:51:55.010Z,1018.95
2022-10-18T08:52:54.985Z,1018.96
2022-10-18T08:53:54.965Z,1018.92
2022-10-18T08:54:54.961Z,1018.94
2022-10-18T08:55:54.951Z,1018.96
2022-10-18T08:56:54.958Z,1019.01
2022-10-18T08:57:54.937Z,1018.98
2022-10-18T08:58:54.911Z,1019.02
2022-10-18T08:59:54.909Z,1019.06
2022-10-18T09:00:54.938Z,1019.05
2022-10-18T09:01:54.913Z,1019.06
2022-10-18T09:02:54.965Z,1019.03
2022-10-18T09:03:54.882Z,1019.08
2022-10-18T09:04:54.838Z,1019.06
2022-10-18T09:05:54.874Z,1019.07
2022-10-18T09:06:54.842Z,1019.09
2022-10-18T09:07:54.839Z,1019.10
2022-10-18T09:08:54.878Z,1019.13
2022-10-18T09:09:54.782Z,1019.13
2022-10-18T09:10:54.902Z,1019.18
2022-10-18T09:11:58.001Z,1019.17
2022-10-18T09:12:55.775Z,1019.24
2022-10-18T09:13:54.756Z,1019.22
2022-10-18T09:14:54.729Z,1019.22
2022-10-18T09:15:54.759Z,1019.20
2022-10-18T09:16:54.770Z,1019.21
2022-10-18T09:17:54.695Z,1019.20
2022-10-18T09:18:54.715Z,1019.23
2022-10-18T09:19:54.726Z,1019.22
2022-10-18T09:20:54.690Z,1019.23
2022-10-18T09:21:54.749Z,1019.24
2022-10-18T09:22:54.659Z,1019.28
2022-10-18T09:23:54.631Z,1019.24
2022-10-18T09:24:54.691Z,1019.22
2022-10-18T09:25:54.769Z,1019.20
2022-10-18T09:26:54.697Z,1019.22
2022-10-18T09:27:54.702Z,1019.22
2022-10-18T09:28:54.795Z,1019.23
2022-10-18T09:29:54.649Z,1019.26
2022-10-18T09:30:57.197Z,1019.24
2022-10-18T09:31:54.584Z,1019.26
2022-10-18T09:32:54.539Z,1019.30
2022-10-18T09:33:54.571Z,1019.32
2022-10-18T09:34:54.589Z,1019.31
2022-10-18T09:35:54.533Z,1019.34
2022-10-18T09:36:54.482Z,1019.37
2022-10-18T09:37:54.524Z,1019.37
2022-10-18T09:38:57.225Z,1019.36
2022-10-18T09:39:55.506Z,1019.31
2022-10-18T09:40:54.451Z,1019.32
2022-10-18T09:41:54.440Z,1019.35
2022-10-18T09:42:54.567Z,1019.32
2022-10-18T09:43:54.600Z,1019.34
2022-10-18T09:44:54.964Z,1019.32
2022-10-18T09:45:54.397Z,1019.33
2022-10-18T09:46:54.389Z,1019.32
2022-10-18T09:47:54.368Z,1019.35
2022-10-18T09:48:55.017Z,1019.34
2022-10-18T09:49:54.373Z,1019.41
2022-10-18T09:50:54.463Z,1019.42
2022-10-18T09:51:54.348Z,1019.34
2022-10-18T09:52:54.337Z,1019.31
2022-10-18T09:53:54.328Z,1019.33
2022-10-18T09:54:54.302Z,1019.37
2022-10-18T09:55:54.294Z,1019.36
2022-10-18T09:57:54.283Z,1019.39
2022-10-18T09:58:54.303Z,1019.41
2022-10-18T09:59:54.243Z,1019.40
2022-10-18T10:00:54.232Z,1019.36
2022-10-18T10:01:54.255Z,1019.41
2022-10-18T10:02:54.251Z,1019.37
2022-10-18T10:03:54.227Z,1019.38
2022-10-18T10:04:54.209Z,1019.39
2022-10-18T10:05:54.197Z,1019.40
2022-10-18T10:06:54.247Z,1019.41
2022-10-18T10:07:54.184Z,1019.43
2022-10-18T10:08:54.153Z,1019.44
2022-10-18T10:09:54.156Z,1019.43
2022-10-18T10:10:54.188Z,1019.39
2022-10-18T10:11:54.134Z,1019.40
2022-10-18T10:12:54.165Z,1019.41
2022-10-18T10:13:54.097Z,1019.41
2022-10-18T10:14:54.156Z,1019.41
2022-10-18T10:15:54.076Z,1019.45
2022-10-18T10:16:54.073Z,1019.47
2022-10-18T10:17:54.067Z,1019.52
2022-10-18T10:20:15.668Z,1019.53
2022-10-18T10:21:15.641Z,1019.51
2022-10-18T10:22:27.298Z,1019.50
2022-10-18T10:23:15.671Z,1019.49
2022-10-18T10:24:15.629Z,1019.51
2022-10-18T10:25:15.620Z,1019.48
2022-10-18T10:26:15.612Z,1019.56
2022-10-18T10:27:15.571Z,1019.54
2022-10-18T10:28:15.565Z,1019.57
2022-10-18T10:29:17.499Z,1019.56
2022-10-18T10:30:16.568Z,1019.53
2022-10-18T10:31:15.971Z,1019.56
2022-10-18T10:32:15.576Z,1019.52
2022-10-18T10:33:15.560Z,1019.58
2022-10-18T10:34:15.528Z,1019.55
2022-10-18T10:35:22.791Z,1019.56
2022-10-18T10:36:16.498Z,1019.56
2022-10-18T10:37:15.517Z,1019.56
2022-10-18T10:38:15.493Z,1019.58
2022-10-18T10:39:15.495Z,1019.54
2022-10-18T10:40:19.887Z,1019.57
2022-10-18T10:41:16.422Z,1019.55
2022-10-18T10:42:15.431Z,1019.57
2022-10-18T10:43:32.847Z,1019.62
2022-10-18T10:44:16.436Z,1019.64
2022-10-18T10:45:15.400Z,1019.58
2022-10-18T10:46:15.362Z,1019.61
2022-10-18T10:47:15.364Z,1019.67
2022-10-18T10:48:15.373Z,1019.67
2022-10-18T10:49:38.534Z,1019.72
2022-10-18T10:50:16.354Z,1019.67
2022-10-18T10:51:15.308Z,1019.67
2022-10-18T10:52:26.838Z,1019.68
2022-10-18T10:53:16.333Z,1019.61
2022-10-18T10:54:15.314Z,1019.61
2022-10-18T10:55:34.197Z,1019.59
2022-10-18T10:56:16.295Z,1019.56
2022-10-18T10:57:15.489Z,1019.60
2022-10-18T10:58:15.258Z,1019.58
2022-10-18T10:59:15.314Z,1019.55
2022-10-18T11:00:15.215Z,1019.61
2022-10-18T11:01:15.203Z,1019.64
2022-10-18T11:02:15.222Z,1019.62
2022-10-18T11:03:28.961Z,1019.71
2022-10-18T11:04:16.257Z,1019.71
2022-10-18T11:05:15.169Z,1019.67
2022-10-18T11:06:15.194Z,1019.66
2022-10-18T11:07:15.182Z,1019.68
2022-10-18T11:08:16.916Z,1019.72
2022-10-18T11:09:15.121Z,1019.75
2022-10-18T11:10:15.138Z,1019.83
2022-10-18T11:11:17.005Z,1019.77
2022-10-18T11:12:15.956Z,1019.78
2022-10-18T11:13:15.082Z,1019.75
2022-10-18T11:14:30.550Z,1019.77
2022-10-18T11:15:16.073Z,1019.74
2022-10-18T11:16:15.083Z,1019.73
2022-10-18T11:17:15.058Z,1019.76
2022-10-18T11:18:15.041Z,1019.76
2022-10-18T11:19:15.008Z,1019.75
2022-10-18T11:20:15.040Z,1019.72
2022-10-18T11:21:15.031Z,1019.70
2022-10-18T11:22:14.988Z,1019.70
2022-10-18T11:23:14.977Z,1019.72
2022-10-18T11:24:14.969Z,1019.66
2022-10-18T11:25:14.987Z,1019.64
2022-10-18T11:26:14.977Z,1019.67
2022-10-18T11:27:14.944Z,1019.68
2022-10-18T11:28:14.922Z,1019.65
2022-10-18T11:29:14.951Z,1019.64
2022-10-18T11:30:14.925Z,1019.66
2022-10-18T11:31:14.895Z,1019.61
2022-10-18T11:32:14.892Z,1019.66
2022-10-18T11:33:14.870Z,1019.64
2022-10-18T11:34:14.861Z,1019.67
2022-10-18T11:35:14.857Z,1019.62
2022-10-18T11:36:14.914Z,1019.60
2022-10-18T11:37:34.631Z,1019.61
2022-10-18T11:38:15.816Z,1019.57
2022-10-18T11:39:14.815Z,1019.55
2022-10-18T11:40:14.828Z,1019.52
2022-10-18T11:41:14.774Z,1019.51
2022-10-18T11:42:14.871Z,1019.55
2022-10-18T11:43:14.750Z,1019.52
2022-10-18T11:44:14.784Z,1019.53
2022-10-18T11:45:14.740Z,1019.53
2022-10-18T11:46:14.710Z,1019.57
2022-10-18T11:47:14.724Z,1019.57
2022-10-18T11:48:14.722Z,1019.54
2022-10-18T11:49:14.721Z,1019.50
2022-10-18T11:50:14.706Z,1019.49
2022-10-18T11:51:14.675Z,1019.50
2022-10-18T11:52:14.649Z,1019.53
2022-10-18T11:53:14.628Z,1019.46
2022-10-18T11:54:14.658Z,1019.50
2022-10-18T11:55:14.758Z,1019.55
2022-10-18T11:56:14.687Z,1019.54
2022-10-18T11:57:14.593Z,1019.52
2022-10-18T11:58:14.603Z,1019.54
2022-10-18T11:59:14.590Z,1019.52
2022-10-18T12:00:14.632Z,1019.49
2022-10-18T12:01:14.549Z,1019.50
2022-10-18T12:02:14.579Z,1019.49
2022-10-18T12:03:14.565Z,1019.45
2022-10-18T12:04:14.559Z,1019.45
2022-10-18T12:05:30.030Z,1019.45
2022-10-18T12:06:15.490Z,1019.51
2022-10-18T12:07:14.478Z,1019.39